Time;durP1;ratioP1;P1;durP2;ratioP2;P2;SDS_P1;SDS_P2;PMS_P1;PMS_P2;Temp;Humidity;BMP_temperature;BMP_pressure;BME280_temperature;BME280_humidity;BME280_pressure;Samples;Min_cycle;Max_cycle;Signal;HPM_P1;HPM_P2
2022/01/25 00:28:41;;;;;;;3.47;3.28;;;16.60;58.60;;;;;;4957134;28;20054;-19
2022/01/25 00:31:10;;;;;;;3.72;3.47;;;16.60;58.80;;;;;;4956387;28;20036;-18
2022/01/25 00:33:37;;;;;;;3.70;3.50;;;16.50;58.60;;;;;;4952181;28;20129;-18
2022/01/25 00:36:04;;;;;;;4.20;3.92;;;16.50;58.60;;;;;;4956348;28;20051;-18
2022/01/25 00:38:30;;;;;;;3.50;3.20;;;16.50;58.60;;;;;;4956279;28;20051;-18
2022/01/25 00:40:56;;;;;;;3.42;3.25;;;16.50;58.40;;;;;;4955402;28;20047;-18
2022/01/25 00:43:23;;;;;;;4.05;3.85;;;16.50;58.50;;;;;;4955445;28;20051;-18
2022/01/25 00:45:52;;;;;;;3.80;3.58;;;16.50;58.50;;;;;;4955906;28;20479;-18
2022/01/25 00:48:19;;;;;;;3.30;3.10;;;16.50;58.50;;;;;;4954831;28;20051;-19
2022/01/25 00:50:48;;;;;;;3.15;3.03;;;16.50;58.50;;;;;;4953334;28;20571;-18
2022/01/25 00:55:58;;;;;;;3.97;3.78;;;16.40;58.60;;;;;;4954991;28;20107;-18
2022/01/25 00:58:23;;;;;;;3.80;3.60;;;16.40;58.60;;;;;;4956770;28;20055;-19
2022/01/25 01:00:49;;;;;;;3.55;3.35;;;16.40;58.60;;;;;;4955203;28;20053;-19
2022/01/25 01:03:15;;;;;;;3.55;3.35;;;16.40;58.60;;;;;;4955841;28;20508;-19
2022/01/25 01:05:41;;;;;;;3.42;3.22;;;16.40;58.60;;;;;;4954489;28;20101;-18
2022/01/25 01:08:07;;;;;;;3.38;3.17;;;16.30;58.60;;;;;;4956578;28;20665;-19
2022/01/25 01:10:33;;;;;;;3.65;3.45;;;16.40;58.60;;;;;;4955858;28;20566;-19
2022/01/25 01:16:31;;;;;;;3.33;3.13;;;16.30;58.70;;;;;;4955233;28;20054;-20
2022/01/25 01:46:02;;;;;;;3.92;3.65;;;16.20;58.70;;;;;;4954972;28;20433;-18
2022/01/25 01:48:35;;;;;;;3.88;3.58;;;16.20;58.70;;;;;;4955944;28;20039;-19
2022/01/25 01:51:07;;;;;;;3.55;3.35;;;16.20;58.80;;;;;;4954316;28;20412;-18
2022/01/25 01:53:33;;;;;;;3.65;3.45;;;16.20;58.80;;;;;;4955645;28;20058;-18
2022/01/25 01:55:58;;;;;;;3.58;3.38;;;16.20;58.80;;;;;;4955160;28;20055;-18
2022/01/25 01:58:24;;;;;;;3.50;3.30;;;16.20;58.80;;;;;;4954013;28;20534;-19
2022/01/25 02:00:50;;;;;;;3.60;3.40;;;16.20;58.70;;;;;;4953737;28;20133;-18
2022/01/25 02:03:16;;;;;;;2.80;2.65;;;16.20;58.70;;;;;;4956120;28;20084;-18
2022/01/25 02:05:41;;;;;;;3.42;3.22;;;16.20;58.70;;;;;;4953785;28;20172;-18
2022/01/25 02:08:07;;;;;;;3.55;3.35;;;16.20;58.70;;;;;;4955631;28;20516;-20
2022/01/25 02:10:33;;;;;;;3.20;3.00;;;16.10;58.80;;;;;;4955404;28;20138;-18
2022/01/25 02:12:58;;;;;;;3.00;2.90;;;16.10;58.90;;;;;;4955032;28;20575;-19
2022/01/25 02:15:27;;;;;;;3.83;3.50;;;16.10;58.80;;;;;;4953430;28;20058;-19
2022/01/25 02:22:24;;;;;;;3.13;2.83;;;16.10;58.80;;;;;;4954687;28;20047;-19
2022/01/25 02:23:23;;;;;;;3.05;2.88;;;16.10;58.90;;;;;;4953438;28;20050;-19
2022/01/25 02:25:54;;;;;;;3.10;3.00;;;16.10;58.70;;;;;;4954650;28;20043;-19
2022/01/25 02:28:20;;;;;;;3.00;2.80;;;16.10;58.70;;;;;;4955223;28;20043;-18
2022/01/25 02:30:46;;;;;;;3.45;3.25;;;16.10;58.90;;;;;;4958310;28;20106;-19
2022/01/25 02:33:12;;;;;;;2.70;2.60;;;16.10;58.90;;;;;;4958882;28;20047;-19
2022/01/25 02:35:39;;;;;;;2.95;2.83;;;16.00;58.80;;;;;;4956280;28;20054;-18
2022/01/25 02:38:05;;;;;;;2.88;2.78;;;16.00;58.80;;;;;;4957036;28;20047;-18
2022/01/25 02:40:30;;;;;;;2.80;2.70;;;16.00;58.90;;;;;;4953299;28;20058;-19
2022/01/25 02:42:56;;;;;;;3.03;2.90;;;16.10;58.90;;;;;;4956070;28;20039;-19
2022/01/25 02:45:24;;;;;;;3.08;2.90;;;16.00;58.80;;;;;;4958197;28;20075;-19
2022/01/25 02:48:50;;;;;;;3.25;3.05;;;16.00;58.80;;;;;;4958090;28;20039;-19
2022/01/25 02:50:45;;;;;;;3.28;3.08;;;16.00;58.80;;;;;;4951889;28;20043;-18
2022/01/25 02:53:10;;;;;;;3.25;2.97;;;16.10;58.80;;;;;;4958622;28;20058;-19
2022/01/25 02:55:38;;;;;;;3.20;3.10;;;16.10;58.90;;;;;;4958017;28;20130;-18
2022/01/25 02:58:05;;;;;;;3.33;3.13;;;16.00;58.80;;;;;;4957512;28;20051;-19
2022/01/25 03:00:31;;;;;;;3.00;2.90;;;16.00;58.90;;;;;;4958326;28;20055;-18
2022/01/25 03:02:57;;;;;;;2.90;2.80;;;16.00;58.90;;;;;;4957695;28;20522;-19
2022/01/25 03:05:22;;;;;;;3.28;3.08;;;16.00;58.90;;;;;;4957864;28;20134;-18
2022/01/25 03:07:48;;;;;;;2.97;2.88;;;16.00;58.90;;;;;;4957139;28;20043;-20
2022/01/25 03:10:14;;;;;;;3.10;2.90;;;16.00;59.00;;;;;;4955068;28;20054;-19
2022/01/25 03:12:50;;;;;;;2.58;2.47;;;16.00;58.90;;;;;;4956982;28;20072;-18
2022/01/25 03:17:48;;;;;;;3.20;3.03;;;16.00;59.00;;;;;;4958475;28;20067;-19
2022/01/25 03:20:36;;;;;;;2.70;2.60;;;16.00;58.90;;;;;;4954798;28;20090;-19
2022/01/25 03:23:06;;;;;;;3.30;3.10;;;16.00;59.00;;;;;;4953355;28;20043;-19
2022/01/25 03:25:31;;;;;;;2.70;2.60;;;15.90;58.90;;;;;;4957895;28;20046;-19
2022/01/25 03:27:57;;;;;;;2.80;2.70;;;15.90;58.90;;;;;;4956983;28;20039;-18
2022/01/25 03:30:24;;;;;;;3.50;3.30;;;15.90;59.00;;;;;;4956539;28;20138;-18
2022/01/25 03:32:50;;;;;;;3.38;3.17;;;15.90;59.00;;;;;;4957350;28;20047;-19
2022/01/25 03:35:15;;;;;;;2.80;2.70;;;15.90;59.00;;;;;;4956658;28;20172;-18
2022/01/25 03:37:41;;;;;;;2.72;2.63;;;15.90;59.00;;;;;;4957792;28;20039;-18
2022/01/25 03:40:07;;;;;;;3.40;3.20;;;15.90;59.00;;;;;;4956492;28;20043;-19
2022/01/25 03:42:36;;;;;;;2.78;2.60;;;15.90;58.90;;;;;;4957383;28;20043;-19
2022/01/25 03:45:03;;;;;;;2.80;2.70;;;15.80;59.00;;;;;;4956955;28;20058;-18
2022/01/25 03:47:43;;;;;;;2.60;2.50;;;15.90;59.10;;;;;;4958001;28;20512;-20
2022/01/25 03:50:08;;;;;;;2.70;2.60;;;15.90;59.00;;;;;;4956965;28;20047;-19
2022/01/25 03:52:36;;;;;;;2.72;2.63;;;15.90;59.10;;;;;;4956193;28;20051;-19
2022/01/25 03:55:02;;;;;;;2.47;2.38;;;15.80;59.00;;;;;;4956786;28;20043;-19
2022/01/25 03:57:27;;;;;;;2.50;2.40;;;15.90;59.10;;;;;;4957812;28;20178;-19
2022/01/25 03:59:55;;;;;;;2.75;2.65;;;15.80;59.10;;;;;;4957020;28;20568;-18
2022/01/25 04:02:20;;;;;;;2.42;2.33;;;15.90;59.00;;;;;;4956856;28;20408;-19
2022/01/25 04:04:47;;;;;;;2.40;2.30;;;15.90;58.90;;;;;;4956091;28;20047;-19
2022/01/25 04:07:15;;;;;;;2.50;2.40;;;15.90;59.00;;;;;;4957061;28;20076;-19
2022/01/25 04:09:40;;;;;;;2.55;2.45;;;15.80;59.00;;;;;;4955317;28;20043;-18
2022/01/25 04:12:07;;;;;;;2.38;2.28;;;15.80;59.00;;;;;;4953516;28;20130;-20
2022/01/25 04:14:32;;;;;;;2.20;2.10;;;15.90;59.10;;;;;;4954375;28;20053;-19
2022/01/25 04:19:36;;;;;;;1.98;1.88;;;15.80;59.10;;;;;;4956765;28;20067;-19
2022/01/25 04:27:24;;;;;;;2.47;2.38;;;15.80;59.20;;;;;;4955825;28;20179;-19
2022/01/25 04:29:50;;;;;;;2.40;2.30;;;15.80;59.10;;;;;;4956524;28;20080;-19
2022/01/25 04:32:16;;;;;;;2.13;2.03;;;15.80;59.10;;;;;;4956558;28;20492;-20
2022/01/25 04:34:46;;;;;;;2.30;2.20;;;15.80;59.10;;;;;;4956789;28;20459;-19
2022/01/25 04:53:22;;;;;;;2.08;1.98;;;15.70;59.10;;;;;;4955677;28;19918;-18
2022/01/25 04:55:58;;;;;;;2.00;1.90;;;15.70;59.10;;;;;;4953466;28;20504;-19
2022/01/25 04:58:36;;;;;;;2.70;2.60;;;15.70;59.10;;;;;;4956384;28;20449;-19
2022/01/25 05:01:02;;;;;;;2.13;2.03;;;15.70;59.10;;;;;;4955615;28;20040;-19
2022/01/25 05:03:40;;;;;;;2.10;2.00;;;15.70;59.10;;;;;;4956807;28;20054;-18
2022/01/25 05:06:12;;;;;;;2.15;2.05;;;15.70;59.20;;;;;;4955535;28;20440;-18
2022/01/25 05:08:43;;;;;;;2.30;2.20;;;15.70;59.20;;;;;;4951987;28;20062;-18
2022/01/25 05:11:25;;;;;;;2.28;2.17;;;15.70;59.10;;;;;;4953574;28;20118;-18
2022/01/25 05:14:14;;;;;;;2.10;2.00;;;15.70;59.10;;;;;;4951449;28;20055;-18
2022/01/25 05:16:51;;;;;;;2.17;2.00;;;15.70;59.00;;;;;;4953775;28;20050;-18
2022/01/25 05:24:28;;;;;;;1.40;1.40;;;15.70;59.10;;;;;;4953622;28;20131;-18
2022/01/25 05:26:54;;;;;;;2.00;1.90;;;15.70;59.10;;;;;;4955849;28;20082;-19
2022/01/25 05:29:19;;;;;;;2.00;1.90;;;15.70;59.10;;;;;;4950976;28;20103;-18
2022/01/25 05:31:45;;;;;;;2.13;2.03;;;15.70;59.10;;;;;;4956669;28;20051;-19
2022/01/25 05:34:10;;;;;;;1.90;1.80;;;15.60;59.00;;;;;;4955875;28;20058;-18
2022/01/25 05:36:37;;;;;;;1.95;1.85;;;15.70;59.10;;;;;;4955011;28;20059;-18
2022/01/25 05:39:11;;;;;;;1.73;1.63;;;15.60;59.10;;;;;;4954513;28;20043;-19
2022/01/25 05:41:37;;;;;;;;;;;15.60;59.10;;;;;;4951724;28;20050;-18
2022/01/25 05:44:25;;;;;;;1.80;1.70;;;15.60;59.10;;;;;;4951084;28;19919;-18
2022/01/25 05:49:23;;;;;;;2.05;1.95;;;15.60;59.00;;;;;;4953267;28;20094;-19
2022/01/25 05:51:49;;;;;;;2.05;1.95;;;15.60;59.10;;;;;;4954391;28;20598;-19
2022/01/25 05:54:14;;;;;;;2.00;1.90;;;15.60;59.00;;;;;;4954469;28;20278;-18
2022/01/25 05:56:40;;;;;;;1.58;1.48;;;15.60;59.10;;;;;;4957787;28;20051;-19
2022/01/25 05:59:05;;;;;;;1.83;1.73;;;15.60;59.10;;;;;;4955186;28;20046;-19
2022/01/25 06:01:32;;;;;;;1.70;1.60;;;15.60;59.10;;;;;;4954528;28;20043;-18
2022/01/25 06:03:58;;;;;;;2.00;1.90;;;15.60;59.10;;;;;;4958952;28;20150;-19
2022/01/25 06:06:23;;;;;;;1.90;1.80;;;15.50;59.20;;;;;;4959367;28;20139;-18
2022/01/25 06:08:49;;;;;;;2.45;1.92;;;15.50;59.50;;;;;;4959759;28;20055;-18
2022/01/25 06:11:15;;;;;;;2.10;2.00;;;15.50;60.60;;;;;;4957761;28;20075;-18
2022/01/25 06:13:40;;;;;;;8.50;5.63;;;15.50;61.30;;;;;;4955659;28;20476;-19
2022/01/25 06:16:06;;;;;;;8.05;6.20;;;15.60;62.00;;;;;;4958938;28;20047;-18
2022/01/25 06:18:32;;;;;;;7.82;5.63;;;15.60;62.30;;;;;;4958913;28;20054;-18
2022/01/25 06:20:57;;;;;;;4.45;4.15;;;15.60;62.30;;;;;;4958813;28;20047;-20
2022/01/25 06:23:23;;;;;;;5.43;4.95;;;15.60;62.30;;;;;;4959476;28;20058;-18
2022/01/25 06:25:48;;;;;;;6.53;5.90;;;15.60;62.30;;;;;;4959012;28;20075;-19
2022/01/25 06:28:14;;;;;;;8.52;7.18;;;15.70;61.80;;;;;;4958283;28;20113;-18
2022/01/25 06:30:39;;;;;;;9.23;7.97;;;15.70;61.70;;;;;;4956970;28;20065;-18
2022/01/25 06:33:08;;;;;;;8.85;7.53;;;15.70;61.80;;;;;;4958812;28;20043;-18
2022/01/25 06:35:34;;;;;;;12.10;8.23;;;15.70;61.70;;;;;;4959842;28;20067;-20
2022/01/25 06:38:00;;;;;;;12.15;9.70;;;15.60;61.50;;;;;;4957884;28;20070;-18
2022/01/25 06:40:25;;;;;;;19.98;14.32;;;15.70;61.50;;;;;;4957124;28;20051;-19
2022/01/25 06:42:51;;;;;;;19.80;13.88;;;15.70;61.40;;;;;;4959966;28;20512;-18
2022/01/25 06:45:19;;;;;;;20.52;15.43;;;15.70;61.60;;;;;;4958788;28;20134;-19
2022/01/25 06:47:45;;;;;;;20.70;14.52;;;15.70;61.40;;;;;;4958485;28;20417;-19
2022/01/25 06:50:12;;;;;;;22.80;14.20;;;15.80;61.40;;;;;;4958741;28;20130;-20
2022/01/25 06:52:39;;;;;;;17.85;12.95;;;15.70;61.60;;;;;;4960084;28;20058;-19
2022/01/25 06:55:09;;;;;;;20.02;14.32;;;15.70;62.00;;;;;;4959752;28;20044;-18
2022/01/25 06:57:35;;;;;;;22.88;14.20;;;15.70;62.30;;;;;;4959677;28;20146;-18
2022/01/25 07:00:00;;;;;;;19.52;13.77;;;15.70;62.30;;;;;;4952334;28;20073;-18
2022/01/25 07:02:27;;;;;;;22.60;14.05;;;15.70;62.10;;;;;;4941180;28;20493;-18
2022/01/25 07:04:52;;;;;;;25.75;14.32;;;15.70;62.10;;;;;;4941053;28;20504;-18
2022/01/25 07:07:18;;;;;;;21.08;14.18;;;15.70;61.90;;;;;;4940732;28;20386;-18
2022/01/25 07:09:43;;;;;;;17.67;13.57;;;15.70;61.90;;;;;;4940718;28;20050;-18
2022/01/25 07:12:09;;;;;;;20.27;13.63;;;15.80;61.80;;;;;;4940271;28;20054;-18
2022/01/25 07:14:35;;;;;;;20.77;14.13;;;15.80;61.60;;;;;;4941356;28;20138;-19
2022/01/25 07:17:01;;;;;;;19.27;13.43;;;15.80;61.60;;;;;;4959249;28;20054;-19
2022/01/25 07:19:26;;;;;;;19.92;13.63;;;15.80;61.40;;;;;;4959930;28;20488;-18
2022/01/25 07:21:52;;;;;;;20.55;13.30;;;15.80;61.20;;;;;;4959253;28;20043;-19
2022/01/25 07:24:18;;;;;;;21.00;13.52;;;15.80;61.20;;;;;;4959155;28;20374;-18
2022/01/25 07:26:44;;;;;;;21.13;15.00;;;15.80;61.30;;;;;;4958488;28;20412;-19
2022/01/25 07:29:09;;;;;;;19.75;13.65;;;15.90;61.20;;;;;;4946429;28;20043;-18
2022/01/25 07:31:35;;;;;;;19.95;13.15;;;15.80;60.80;;;;;;4953323;28;21002;-19
2022/01/25 07:34:01;;;;;;;20.70;15.07;;;15.80;60.90;;;;;;4955460;28;20563;-19
2022/01/25 07:36:26;;;;;;;25.98;18.98;;;15.90;60.80;;;;;;4945036;28;20055;-18
2022/01/25 07:38:52;;;;;;;30.02;20.52;;;15.80;60.70;;;;;;4950171;28;20138;-20
2022/01/25 07:41:17;;;;;;;30.27;21.35;;;15.80;60.70;;;;;;4941388;28;20090;-20
2022/01/25 07:43:43;;;;;;;35.50;24.27;;;15.90;60.70;;;;;;4942237;28;20059;-17
2022/01/25 07:46:09;;;;;;;28.48;19.83;;;15.80;60.80;;;;;;4941098;28;20043;-17
2022/01/25 07:48:35;;;;;;;26.83;18.60;;;15.80;60.80;;;;;;4947412;28;20150;-17
2022/01/25 07:51:00;;;;;;;27.88;20.90;;;15.80;60.50;;;;;;4941874;28;20164;-20
2022/01/25 07:53:26;;;;;;;28.67;20.02;;;15.90;60.70;;;;;;4945173;28;20055;-20
2022/01/25 07:55:52;;;;;;;29.25;19.45;;;15.90;60.70;;;;;;4945673;28;20621;-19
2022/01/25 07:58:17;;;;;;;28.42;19.05;;;15.80;60.60;;;;;;4944217;28;20058;-18
2022/01/25 08:00:43;;;;;;;29.50;19.20;;;15.80;60.60;;;;;;4950022;28;20909;-19
2022/01/25 08:03:08;;;;;;;25.13;17.35;;;15.80;60.70;;;;;;4954217;28;20403;-20
2022/01/25 08:05:34;;;;;;;28.77;18.23;;;15.90;60.80;;;;;;4941017;28;20062;-19
2022/01/25 08:08:01;;;;;;;28.88;19.85;;;15.90;60.60;;;;;;4939206;28;20074;-18
2022/01/25 08:10:27;;;;;;;25.27;18.63;;;15.80;60.50;;;;;;4948434;28;20054;-18
2022/01/25 08:12:52;;;;;;;22.42;17.70;;;15.80;60.50;;;;;;4943716;28;20047;-18
2022/01/25 08:15:18;;;;;;;24.67;18.33;;;15.90;60.50;;;;;;4943561;28;21294;-18
2022/01/25 08:17:44;;;;;;;26.80;17.42;;;15.90;60.30;;;;;;4940453;28;20062;-20
2022/01/25 08:20:10;;;;;;;27.02;18.35;;;15.90;60.50;;;;;;4940475;28;20065;-19
2022/01/25 08:22:35;;;;;;;25.35;17.77;;;15.90;60.40;;;;;;4951863;28;20416;-19
2022/01/25 08:25:02;;;;;;;23.73;16.88;;;16.00;60.30;;;;;;4957715;28;20031;-18
2022/01/25 08:27:28;;;;;;;22.77;17.60;;;16.00;60.10;;;;;;4958265;28;20058;-19
2022/01/25 08:29:53;;;;;;;26.58;17.85;;;16.00;61.00;;;;;;4953408;28;20040;-19
2022/01/25 08:32:20;;;;;;;24.10;17.15;;;16.00;60.00;;;;;;4954531;28;20062;-19
2022/01/25 08:34:45;;;;;;;25.45;17.17;;;15.90;60.00;;;;;;4941425;28;20493;-19
2022/01/25 08:37:11;;;;;;;25.20;17.63;;;15.90;59.90;;;;;;4957031;28;20419;-20
2022/01/25 08:39:37;;;;;;;22.33;16.85;;;15.90;60.00;;;;;;4958135;28;20066;-18
2022/01/25 08:42:03;;;;;;;22.75;15.45;;;15.90;60.00;;;;;;4957085;28;20050;-20
2022/01/25 08:44:29;;;;;;;22.05;16.27;;;15.90;60.00;;;;;;4946850;28;20082;-19
2022/01/25 08:46:54;;;;;;;19.63;15.32;;;15.90;60.00;;;;;;4958287;28;20098;-19
2022/01/25 08:49:21;;;;;;;20.10;15.32;;;15.90;60.00;;;;;;4957227;28;20078;-19
2022/01/25 08:51:48;;;;;;;19.38;14.23;;;15.90;60.70;;;;;;4958311;28;20123;-19
2022/01/25 08:54:14;;;;;;;17.60;13.93;;;15.90;59.90;;;;;;4952673;28;20601;-19
2022/01/25 08:56:41;;;;;;;16.75;13.43;;;15.90;59.80;;;;;;4948688;28;20047;-19
2022/01/25 08:59:07;;;;;;;18.08;13.88;;;15.90;59.80;;;;;;4957384;28;20111;-20
2022/01/25 09:01:33;;;;;;;19.70;13.73;;;15.90;59.80;;;;;;4958159;28;20055;-18
2022/01/25 09:04:00;;;;;;;16.55;13.63;;;15.90;59.80;;;;;;4958106;28;20053;-18
2022/01/25 09:06:26;;;;;;;17.33;13.77;;;15.90;59.70;;;;;;4957362;28;20416;-19
2022/01/25 09:08:53;;;;;;;20.30;13.90;;;15.90;59.80;;;;;;4957322;28;20047;-18
2022/01/25 09:11:18;;;;;;;18.88;13.45;;;16.00;59.80;;;;;;4957028;28;20135;-19
2022/01/25 09:13:44;;;;;;;16.27;12.65;;;15.90;59.80;;;;;;4943651;28;20127;-19
2022/01/25 09:16:10;;;;;;;16.30;12.38;;;15.90;59.80;;;;;;4938096;28;20453;-20
2022/01/25 09:18:36;;;;;;;16.70;11.68;;;16.00;59.80;;;;;;4938633;28;20486;-18
2022/01/25 09:21:02;;;;;;;15.10;11.60;;;15.90;59.70;;;;;;4956799;28;20047;-18
2022/01/25 09:23:28;;;;;;;14.95;11.93;;;15.90;59.70;;;;;;4956896;28;20047;-19
2022/01/25 09:25:55;;;;;;;15.13;12.60;;;15.90;59.70;;;;;;4950645;28;20584;-19
2022/01/25 09:28:20;;;;;;;13.95;12.10;;;15.90;59.70;;;;;;4937662;28;20047;-18
2022/01/25 09:30:46;;;;;;;18.17;12.98;;;15.90;59.70;;;;;;4938537;28;20130;-18
2022/01/25 09:33:12;;;;;;;16.02;11.68;;;15.90;59.70;;;;;;4952115;28;20408;-19
2022/01/25 09:35:37;;;;;;;18.20;11.75;;;16.00;59.50;;;;;;4957458;28;20098;-19
2022/01/25 09:38:03;;;;;;;14.10;11.35;;;16.00;59.50;;;;;;4956889;28;20564;-20
2022/01/25 09:40:29;;;;;;;12.32;11.02;;;15.90;60.10;;;;;;4956168;28;20047;-20
2022/01/25 09:42:56;;;;;;;15.30;11.07;;;15.90;59.50;;;;;;4957431;28;20050;-18
2022/01/25 09:45:22;;;;;;;13.02;10.57;;;15.90;59.50;;;;;;4956181;28;20039;-21
2022/01/25 09:47:48;;;;;;;13.38;11.30;;;16.00;59.40;;;;;;4956806;28;20054;-18
2022/01/25 09:50:14;;;;;;;13.57;10.60;;;15.90;59.40;;;;;;4956749;28;20039;-19
2022/01/25 09:52:43;;;;;;;11.98;10.55;;;16.00;59.30;;;;;;4955213;28;20452;-20
2022/01/25 09:55:10;;;;;;;14.52;11.10;;;16.00;59.30;;;;;;4937538;28;20052;-19
2022/01/25 09:57:36;;;;;;;12.85;11.00;;;16.00;59.40;;;;;;4954849;28;20070;-19
2022/01/25 10:00:03;;;;;;;13.15;10.88;;;15.90;59.30;;;;;;4957047;28;20516;-19
2022/01/25 10:02:43;;;;;;;11.50;10.30;;;15.90;59.30;;;;;;4951705;28;20047;-19
2022/01/25 10:05:27;;;;;;;12.90;10.55;;;15.90;59.30;;;;;;4951921;28;20118;-19
2022/01/25 10:08:00;;;;;;;14.87;10.43;;;15.90;59.30;;;;;;4948565;28;20044;-18
2022/01/25 10:10:26;;;;;;;10.57;9.45;;;15.90;59.30;;;;;;4956345;28;20043;-21
2022/01/25 10:12:55;;;;;;;12.65;9.82;;;15.90;59.30;;;;;;4957035;28;20050;-19
2022/01/25 10:15:20;;;;;;;13.90;9.82;;;15.90;59.20;;;;;;4955685;28;20047;-19
2022/01/25 10:17:46;;;;;;;10.30;9.30;;;15.90;59.10;;;;;;4954037;28;20047;-20
2022/01/25 10:20:50;;;;;;;11.90;10.40;;;16.00;59.10;;;;;;4954835;28;20054;-20
2022/01/25 10:23:18;;;;;;;12.85;9.93;;;15.90;59.10;;;;;;4953754;29;20039;-19
2022/01/25 10:25:45;;;;;;;9.93;8.93;;;15.90;59.00;;;;;;4954384;29;20047;-20
2022/01/25 10:28:12;;;;;;;12.02;9.25;;;15.90;59.00;;;;;;4955314;28;20051;-20
2022/01/25 10:30:39;;;;;;;9.52;8.60;;;15.90;59.00;;;;;;4962915;28;20048;-19
2022/01/25 10:33:17;;;;;;;9.70;8.40;;;15.90;59.00;;;;;;4956740;28;20531;-19
2022/01/25 10:35:42;;;;;;;9.88;8.88;;;16.00;59.00;;;;;;4955739;28;20110;-19
2022/01/25 10:38:24;;;;;;;9.70;8.80;;;16.00;58.80;;;;;;4956151;28;20043;-19
2022/01/25 10:41:14;;;;;;;9.32;8.00;;;16.00;58.80;;;;;;4937468;28;20052;-20
2022/01/25 10:43:40;;;;;;;9.60;8.60;;;16.00;58.70;;;;;;4942427;28;20094;-19
2022/01/25 10:46:30;;;;;;;9.75;8.20;;;16.00;58.70;;;;;;4956393;28;20058;-19
2022/01/25 10:49:12;;;;;;;8.13;7.32;;;16.00;58.70;;;;;;4954212;28;20066;-20
2022/01/25 10:51:38;;;;;;;8.63;7.72;;;16.10;58.60;;;;;;4959142;28;20102;-20
2022/01/25 10:54:16;;;;;;;8.43;7.63;;;16.10;58.80;;;;;;4960181;28;20046;-20
2022/01/25 10:56:48;;;;;;;8.93;8.02;;;16.10;58.60;;;;;;4959393;28;20050;-19
2022/01/25 10:59:18;;;;;;;9.38;8.43;;;16.10;58.70;;;;;;4950520;28;20062;-20
2022/01/25 11:01:54;;;;;;;10.77;8.77;;;16.10;58.60;;;;;;4942405;28;20052;-19
2022/01/25 11:04:29;;;;;;;10.18;9.13;;;16.00;58.60;;;;;;4959252;28;20050;-20
2022/01/25 11:07:02;;;;;;;8.88;8.10;;;16.10;58.60;;;;;;4959301;28;20055;-21
2022/01/25 11:09:34;;;;;;;9.40;7.90;;;16.10;58.60;;;;;;4959363;28;20130;-19
2022/01/25 11:12:00;;;;;;;9.43;8.52;;;16.10;58.60;;;;;;4951923;28;20142;-21
2022/01/25 11:17:10;;;;;;;7.97;7.18;;;16.10;58.60;;;;;;4958141;28;20057;-21
2022/01/25 11:19:36;;;;;;;7.97;7.10;;;16.20;58.50;;;;;;4941552;28;20063;-21
2022/01/25 11:22:01;;;;;;;8.77;7.97;;;16.20;58.50;;;;;;4955188;28;20047;-21
2022/01/25 11:24:29;;;;;;;8.05;7.28;;;16.20;58.60;;;;;;4958871;28;20054;-23
2022/01/25 11:26:54;;;;;;;8.02;7.32;;;16.20;58.50;;;;;;4958647;28;20051;-22
2022/01/25 11:29:20;;;;;;;8.30;7.57;;;16.20;58.60;;;;;;4957286;28;20046;-23
2022/01/25 11:31:54;;;;;;;8.55;7.55;;;16.30;58.30;;;;;;4946989;28;20054;-22
2022/01/25 11:34:23;;;;;;;7.93;7.22;;;16.30;58.30;;;;;;4938797;28;20050;-22
2022/01/25 11:36:51;;;;;;;8.45;7.65;;;16.20;58.40;;;;;;4951554;28;20055;-22
2022/01/25 11:39:19;;;;;;;8.18;7.47;;;16.20;58.40;;;;;;4952965;28;20543;-20
2022/01/25 11:41:45;;;;;;;8.27;7.38;;;16.20;58.20;;;;;;4958883;28;20043;-22
2022/01/25 11:44:14;;;;;;;9.40;8.10;;;16.20;58.20;;;;;;4957984;28;20067;-23
2022/01/25 11:46:41;;;;;;;7.40;6.72;;;16.20;58.20;;;;;;4958662;28;20062;-22
2022/01/25 11:49:14;;;;;;;7.45;6.82;;;16.20;58.20;;;;;;4958983;28;20047;-22
2022/01/25 11:51:40;;;;;;;7.80;7.00;;;16.20;58.30;;;;;;4958498;28;20055;-24
2022/01/25 11:54:08;;;;;;;8.00;7.30;;;16.20;58.20;;;;;;4958126;28;20160;-22
2022/01/25 11:56:34;;;;;;;7.53;6.93;;;16.20;58.10;;;;;;4958186;28;20058;-23
2022/01/25 11:59:00;;;;;;;7.93;7.10;;;16.20;58.10;;;;;;4957368;28;20496;-23
2022/01/25 12:01:26;;;;;;;7.05;6.38;;;16.20;58.10;;;;;;4943281;28;20062;-22
2022/01/25 12:03:58;;;;;;;7.10;6.53;;;16.20;58.10;;;;;;4945980;28;20043;-22
2022/01/25 12:06:44;;;;;;;10.07;6.75;;;16.20;58.10;;;;;;4958235;28;20210;-22
2022/01/25 12:11:45;;;;;;;7.68;7.00;;;16.30;58.00;;;;;;4939022;28;20048;-20
2022/01/25 12:14:50;;;;;;;7.35;6.75;;;16.30;58.00;;;;;;4946781;28;20479;-20
2022/01/25 12:17:19;;;;;;;8.02;6.38;;;16.30;57.90;;;;;;4957009;28;20092;-19
2022/01/25 12:19:54;;;;;;;6.30;5.90;;;16.30;58.00;;;;;;4958482;28;20425;-21
2022/01/25 12:25:24;;;;;;;6.15;5.65;;;16.30;57.90;;;;;;4958501;28;20083;-20
2022/01/25 12:27:58;;;;;;;6.30;5.80;;;16.30;57.90;;;;;;4949873;28;20416;-20
2022/01/25 12:30:26;;;;;;;6.30;5.80;;;16.30;57.80;;;;;;4957140;28;20051;-19
2022/01/25 12:33:03;;;;;;;6.07;5.63;;;16.30;57.90;;;;;;4958038;28;20054;-20
2022/01/25 12:35:43;;;;;;;6.20;5.70;;;16.30;57.90;;;;;;4605105;28;10000586;-24
2022/01/25 12:38:12;;;;;;;5.95;5.53;;;16.30;57.90;;;;;;4942600;28;20449;-23
2022/01/25 12:40:52;;;;;;;5.90;5.50;;;16.30;57.80;;;;;;4953652;28;20050;-22
2022/01/25 12:43:29;;;;;;;5.93;5.53;;;16.30;57.80;;;;;;4944319;28;20387;-24
2022/01/25 12:45:55;;;;;;;5.70;5.20;;;16.30;57.90;;;;;;4951579;28;20066;-23
2022/01/25 12:48:25;;;;;;;6.10;5.60;;;16.30;57.80;;;;;;4952578;28;20059;-23
2022/01/25 12:50:51;;;;;;;5.60;5.20;;;16.30;57.90;;;;;;4953730;28;20043;-22
2022/01/25 12:53:23;;;;;;;5.72;5.32;;;16.30;57.80;;;;;;4953960;28;20350;-22
2022/01/25 12:55:50;;;;;;;5.82;5.43;;;16.30;57.90;;;;;;4954072;28;20556;-22
2022/01/25 12:58:18;;;;;;;5.65;5.25;;;16.30;58.00;;;;;;4954534;28;20629;-23
2022/01/25 13:00:46;;;;;;;5.40;5.00;;;16.40;58.20;;;;;;4952804;28;20183;-23
2022/01/25 13:03:16;;;;;;;6.55;5.95;;;16.40;57.90;;;;;;4943324;28;20585;-24
2022/01/25 13:05:43;;;;;;;5.75;5.35;;;16.40;58.00;;;;;;4947371;28;20044;-22
2022/01/25 13:08:18;;;;;;;6.03;5.53;;;16.40;58.10;;;;;;4949397;28;20047;-23
2022/01/25 13:10:44;;;;;;;5.35;4.95;;;16.40;58.10;;;;;;4970237;28;20046;-24
2022/01/25 13:13:45;;;;;;;4.72;4.43;;;16.40;58.20;;;;;;4937537;28;20047;-25
2022/01/25 13:16:08;;;;;;;5.40;5.10;;;16.40;58.20;;;;;;4939710;28;20089;-23
2022/01/25 13:18:38;;;;;;;4.95;4.55;;;16.40;58.10;;;;;;4956106;28;20102;-24
2022/01/25 13:21:08;;;;;;;5.00;4.70;;;16.40;58.10;;;;;;4956705;28;20043;-24
2022/01/25 13:23:34;;;;;;;4.93;4.57;;;16.40;58.00;;;;;;4958476;28;20046;-24
2022/01/25 13:26:12;;;;;;;4.47;4.18;;;16.40;58.10;;;;;;4963550;28;20066;-23
2022/01/25 13:31:16;;;;;;;5.00;4.65;;;16.40;58.10;;;;;;4957083;28;20066;-23
2022/01/25 13:33:41;;;;;;;5.10;4.80;;;16.40;58.10;;;;;;4941080;28;20051;-23
2022/01/25 13:36:08;;;;;;;4.82;4.53;;;16.40;58.10;;;;;;4938103;28;20056;-24
2022/01/25 13:38:38;;;;;;;4.90;4.60;;;16.40;58.20;;;;;;4946586;28;20049;-24
2022/01/25 13:46:38;;;;;;;5.47;5.07;;;16.40;58.20;;;;;;4947142;28;20074;-23
2022/01/25 13:49:15;;;;;;;5.60;4.90;;;16.40;58.10;;;;;;4951924;28;20054;-20
2022/01/25 13:51:49;;;;;;;5.90;5.47;;;16.40;58.20;;;;;;4956524;28;20078;-21
2022/01/25 13:54:16;;;;;;;5.22;4.93;;;16.50;58.00;;;;;;4965561;28;20050;-21
2022/01/25 13:56:42;;;;;;;5.72;5.38;;;16.50;58.10;;;;;;4949975;28;20058;-20
2022/01/25 13:59:08;;;;;;;4.97;4.68;;;16.40;58.00;;;;;;4956833;28;20047;-20
2022/01/25 14:01:35;;;;;;;5.68;5.28;;;16.40;58.10;;;;;;4955725;28;20479;-22
2022/01/25 14:04:14;;;;;;;5.60;5.20;;;16.40;58.10;;;;;;4945309;28;20142;-22
2022/01/25 14:06:41;;;;;;;5.80;5.32;;;16.40;58.20;;;;;;4949885;28;20492;-21
2022/01/25 14:09:16;;;;;;;6.07;5.57;;;16.50;58.20;;;;;;4956537;28;20416;-20
2022/01/25 14:25:13;;;;;;;5.57;5.10;;;16.40;58.20;;;;;;4940772;28;20130;-21
2022/01/25 14:27:52;;;;;;;5.78;5.38;;;16.40;58.00;;;;;;4959388;28;20035;-21
2022/01/25 14:30:18;;;;;;;6.20;5.60;;;16.50;58.00;;;;;;4960539;28;20050;-23
2022/01/25 14:32:44;;;;;;;5.60;5.18;;;16.60;58.00;;;;;;4951348;28;20051;-22
2022/01/25 14:35:11;;;;;;;5.80;5.40;;;16.50;57.90;;;;;;4951427;28;20047;-23
2022/01/25 14:37:45;;;;;;;6.15;5.68;;;16.50;58.00;;;;;;4943761;28;20070;-23
2022/01/25 14:40:12;;;;;;;7.17;6.57;;;16.50;58.10;;;;;;4958820;28;20526;-23
2022/01/25 14:42:39;;;;;;;6.47;5.90;;;16.50;58.60;;;;;;4956426;28;20523;-24
2022/01/25 14:45:06;;;;;;;6.50;6.00;;;16.50;58.20;;;;;;4959730;28;20031;-23
2022/01/25 14:47:37;;;;;;;7.20;5.35;;;16.50;58.40;;;;;;4951165;28;20068;-23
2022/01/25 14:50:13;;;;;;;7.00;6.30;;;16.50;58.40;;;;;;4957364;28;20054;-23
2022/01/25 14:52:39;;;;;;;6.70;6.10;;;16.40;58.50;;;;;;4959198;28;20138;-23
2022/01/25 14:55:17;;;;;;;6.60;6.10;;;16.50;58.50;;;;;;4957962;28;20115;-24